Station Historical Data
Daily Summary for August 12, 2012 Units:  Both    English   Metric
« Previous Day
Next Day »
Daily Weekly Monthly Yearly Custom
  High: Low: Average:
Temperature: 83.0 °F /  28.3 °C 55.3 °F /  12.9 °C 70.8 °F /  21.6 °C
Dew Point: 64.5 °F /  18.1 °C 53.8 °F /  12.1 °C 58.5 °F /  14.7 °C
Humidity: 95% 41% 68%
Wind Speed: 6.0mph /  9.7km/h - 1.3mph /  2.1km/h
Wind Gust: 8.0mph /  12.9km/h - -
Wind- - SSE
Pressure: 30.04 in /  1017.2 hPa 29.94 in /  1013.8 hPa -
Precipitation: 0.02 in /  0.51 mm    
Historical Graphs
 
 
Tabular Data for August 12, 2012
Time Temperature Dew Point Pressure Wind Wind Speed Wind Gust Humidity Rainfall Rate (Hourly) Conditions
00:00 67.1 °F /  19.5 °C 58.5 °F /  14.7 °C 29.95in /  1014.1hPa Calm   1.0mph /  1.6km/h 74% 0.00in /  0mm
00:01 67.0 °F /  19.4 °C 58.5 °F /  14.7 °C 29.95in /  1014.1hPa ENE 1.0mph /  1.6km/h 1.0mph /  1.6km/h 74% 0.00in /  0mm
00:06 66.8 °F /  19.3 °C 58.3 °F /  14.6 °C 29.95in /  1014.1hPa ENE 1.0mph /  1.6km/h 1.0mph /  1.6km/h 74% 0.00in /  0mm
00:12 66.7 °F /  19.3 °C 57.8 °F /  14.3 °C 29.95in /  1014.1hPa Calm   1.0mph /  1.6km/h 73% 0.00in /  0mm
00:17 66.7 °F /  19.3 °C 57.8 °F /  14.3 °C 29.95in /  1014.1hPa East 1.0mph /  1.6km/h 2.0mph /  3.2km/h 73% 0.00in /  0mm
00:22 66.9 °F /  19.4 °C 57.2 °F /  14 °C 29.95in /  1014.1hPa Calm   2.0mph /  3.2km/h 71% 0.00in /  0mm
00:27 66.8 °F /  19.3 °C 57.9 °F /  14.4 °C 29.95in /  1014.1hPa Calm     73% 0.00in /  0mm
00:32 66.4 °F /  19.1 °C 57.5 °F /  14.2 °C 29.95in /  1014.1hPa NE 1.0mph /  1.6km/h 2.0mph /  3.2km/h 73% 0.00in /  0mm
00:37 66.1 °F /  18.9 °C 57.6 °F /  14.2 °C 29.95in /  1014.1hPa SE 1.0mph /  1.6km/h 1.0mph /  1.6km/h 74% 0.00in /  0mm
00:42 65.2 °F /  18.4 °C 57.8 °F /  14.3 °C 29.96in /  1014.4hPa SE 1.0mph /  1.6km/h 2.0mph /  3.2km/h 77% 0.00in /  0mm
00:47 64.5 °F /  18.1 °C 57.1 °F /  13.9 °C 29.96in /  1014.4hPa Calm     77% 0.00in /  0mm
00:52 64.5 °F /  18.1 °C 57.1 °F /  13.9 °C 29.96in /  1014.4hPa Calm     77% 0.00in /  0mm
00:57 64.4 °F /  18 °C 57.4 °F /  14.1 °C 29.96in /  1014.4hPa Calm     78% 0.00in /  0mm
01:02 63.9 °F /  17.7 °C 57.6 °F /  14.2 °C 29.96in /  1014.4hPa Calm   1.0mph /  1.6km/h 80% 0.00in /  0mm
01:07 63.3 °F /  17.4 °C 58.1 °F /  14.5 °C 29.96in /  1014.4hPa Calm   1.0mph /  1.6km/h 83% 0.00in /  0mm
01:12 62.8 °F /  17.1 °C 57.9 °F /  14.4 °C 29.96in /  1014.4hPa Calm     84% 0.00in /  0mm
01:17 62.4 °F /  16.9 °C 57.8 °F /  14.3 °C 29.96in /  1014.4hPa Calm     85% 0.00in /  0mm
01:22 62.3 °F /  16.8 °C 57.7 °F /  14.3 °C 29.96in /  1014.4hPa Calm     85% 0.00in /  0mm
01:27 62.3 °F /  16.8 °C 57.7 °F /  14.3 °C 29.96in /  1014.4hPa Calm     85% 0.00in /  0mm
01:32 61.7 °F /  16.5 °C 57.8 °F /  14.3 °C 29.96in /  1014.4hPa Calm     87% 0.00in /  0mm
01:37 61.1 °F /  16.2 °C 57.8 °F /  14.3 °C 29.96in /  1014.4hPa Calm     89% 0.00in /  0mm
01:42 60.7 °F /  15.9 °C 57.8 °F /  14.3 °C 29.96in /  1014.4hPa Calm     90% 0.00in /  0mm
01:47 60.7 °F /  15.9 °C 57.4 °F /  14.1 °C 29.96in /  1014.4hPa Calm     89% 0.00in /  0mm
01:52 60.5 °F /  15.8 °C 56.9 °F /  13.8 °C 29.96in /  1014.4hPa Calm     88% 0.00in /  0mm
01:57 60.3 °F /  15.7 °C 57.0 °F /  13.9 °C 29.96in /  1014.4hPa Calm     89% 0.00in /  0mm
02:02 59.9 °F /  15.5 °C 57.0 °F /  13.9 °C 29.97in /  1014.8hPa Calm     90% 0.00in /  0mm
02:07 59.5 °F /  15.3 °C 56.6 °F /  13.7 °C 29.96in /  1014.4hPa Calm     90% 0.00in /  0mm
02:12 59.1 °F /  15.1 °C 56.5 °F /  13.6 °C 29.97in /  1014.8hPa Calm     91% 0.00in /  0mm
02:17 59.0 °F /  15 °C 56.7 °F /  13.7 °C 29.97in /  1014.8hPa Calm     92% 0.00in /  0mm
02:22 59.3 °F /  15.2 °C 57.0 °F /  13.9 °C 29.97in /  1014.8hPa NNE 1.0mph /  1.6km/h 1.0mph /  1.6km/h 92% 0.00in /  0mm
02:27 59.5 °F /  15.3 °C 57.2 °F /  14 °C 29.97in /  1014.8hPa NNE 1.0mph /  1.6km/h 1.0mph /  1.6km/h 92% 0.00in /  0mm
02:33 59.5 °F /  15.3 °C 57.2 °F /  14 °C 29.97in /  1014.8hPa Calm   1.0mph /  1.6km/h 92% 0.00in /  0mm
02:38 59.3 °F /  15.2 °C 57.3 °F /  14.1 °C 29.97in /  1014.8hPa Calm   1.0mph /  1.6km/h 93% 0.00in /  0mm
02:43 59.1 °F /  15.1 °C 57.1 °F /  13.9 °C 29.97in /  1014.8hPa Calm   1.0mph /  1.6km/h 93% 0.00in /  0mm
02:48 58.8 °F /  14.9 °C 56.8 °F /  13.8 °C 29.97in /  1014.8hPa Calm     93% 0.00in /  0mm
02:53 58.8 °F /  14.9 °C 57.1 °F /  13.9 °C 29.97in /  1014.8hPa NNE 1.0mph /  1.6km/h 1.0mph /  1.6km/h 94% 0.00in /  0mm
02:58 58.8 °F /  14.9 °C 57.1 °F /  13.9 °C 29.97in /  1014.8hPa NNE 1.0mph /  1.6km/h 1.0mph /  1.6km/h 94% 0.00in /  0mm
03:03 58.6 °F /  14.8 °C 56.9 °F /  13.8 °C 29.97in /  1014.8hPa Calm     94% 0.00in /  0mm
03:08 58.6 °F /  14.8 °C 56.9 °F /  13.8 °C 29.97in /  1014.8hPa Calm     94% 0.00in /  0mm
03:13 58.6 °F /  14.8 °C 56.9 °F /  13.8 °C 29.98in /  1015.1hPa Calm   1.0mph /  1.6km/h 94% 0.00in /  0mm
03:18 58.6 °F /  14.8 °C 56.9 °F /  13.8 °C 29.98in /  1015.1hPa Calm     94% 0.00in /  0mm
03:23 58.6 °F /  14.8 °C 56.6 °F /  13.7 °C 29.97in /  1014.8hPa Calm     93% 0.00in /  0mm
03:28 58.6 °F /  14.8 °C 56.6 °F /  13.7 °C 29.97in /  1014.8hPa NNE 1.0mph /  1.6km/h 1.0mph /  1.6km/h 93% 0.00in /  0mm
03:33 58.8 °F /  14.9 °C 56.5 °F /  13.6 °C 29.97in /  1014.8hPa Calm   1.0mph /  1.6km/h 92% 0.00in /  0mm
03:38 59.0 °F /  15 °C 56.4 °F /  13.6 °C 29.97in /  1014.8hPa Calm     91% 0.00in /  0mm
03:43 58.9 °F /  14.9 °C 56.3 °F /  13.5 °C 29.97in /  1014.8hPa Calm     91% 0.00in /  0mm
03:48 58.7 °F /  14.8 °C 56.1 °F /  13.4 °C 29.97in /  1014.8hPa NNE 1.0mph /  1.6km/h 1.0mph /  1.6km/h 91% 0.00in /  0mm
03:53 58.4 °F /  14.7 °C 55.8 °F /  13.2 °C 29.98in /  1015.1hPa Calm     91% 0.00in /  0mm
03:58 58.2 °F /  14.6 °C 55.9 °F /  13.3 °C 29.98in /  1015.1hPa NNE 1.0mph /  1.6km/h 1.0mph /  1.6km/h 92% 0.00in /  0mm
04:03 58.0 °F /  14.4 °C 56.0 °F /  13.3 °C 29.98in /  1015.1hPa Calm     93% 0.00in /  0mm
04:08 57.7 °F /  14.3 °C 55.7 °F /  13.2 °C 29.98in /  1015.1hPa Calm     93% 0.00in /  0mm
04:13 57.7 °F /  14.3 °C 56.0 °F /  13.3 °C 29.98in /  1015.1hPa Calm   1.0mph /  1.6km/h 94% 0.00in /  0mm
04:18 57.8 °F /  14.3 °C 56.1 °F /  13.4 °C 29.98in /  1015.1hPa Calm   1.0mph /  1.6km/h 94% 0.00in /  0mm
04:23 57.7 °F /  14.3 °C 56.0 °F /  13.3 °C 29.98in /  1015.1hPa Calm     94% 0.00in /  0mm
04:28 57.5 °F /  14.2 °C 55.8 °F /  13.2 °C 29.98in /  1015.1hPa Calm     94% 0.00in /  0mm
04:33 57.5 °F /  14.2 °C 55.8 °F /  13.2 °C 29.97in /  1014.8hPa Calm     94% 0.00in /  0mm
04:38 57.8 °F /  14.3 °C 56.1 °F /  13.4 °C 29.98in /  1015.1hPa Calm     94% 0.00in /  0mm
04:43 57.5 °F /  14.2 °C 55.8 °F /  13.2 °C 29.98in /  1015.1hPa Calm     94% 0.00in /  0mm
04:48 57.1 °F /  13.9 °C 55.4 °F /  13 °C 29.98in /  1015.1hPa Calm     94% 0.00in /  0mm
04:53 57.0 °F /  13.9 °C 55.3 °F /  12.9 °C 29.98in /  1015.1hPa Calm     94% 0.00in /  0mm
04:58 56.7 °F /  13.7 °C 55.0 °F /  12.8 °C 29.98in /  1015.1hPa Calm     94% 0.00in /  0mm
05:03 56.4 °F /  13.6 °C 54.7 °F /  12.6 °C 29.98in /  1015.1hPa Calm     94% 0.00in /  0mm
05:08 56.4 °F /  13.6 °C 54.7 °F /  12.6 °C 29.98in /  1015.1hPa Calm     94% 0.00in /  0mm
05:14 56.6 °F /  13.7 °C 55.2 °F /  12.9 °C 29.98in /  1015.1hPa Calm     95% 0.00in /  0mm
05:19 56.8 °F /  13.8 °C 55.4 °F /  13 °C 29.99in /  1015.5hPa Calm     95% 0.00in /  0mm
05:24 56.5 °F /  13.6 °C 54.8 °F /  12.7 °C 29.99in /  1015.5hPa Calm     94% 0.00in /  0mm
05:29 56.8 °F /  13.8 °C 55.4 °F /  13 °C 29.99in /  1015.5hPa Calm     95% 0.00in /  0mm
05:34 56.5 °F /  13.6 °C 54.8 °F /  12.7 °C 29.99in /  1015.5hPa Calm     94% 0.00in /  0mm
05:39 56.3 °F /  13.5 °C 54.9 °F /  12.7 °C 29.99in /  1015.5hPa Calm     95% 0.00in /  0mm
05:44 56.5 °F /  13.6 °C 55.1 °F /  12.8 °C 30.00in /  1015.8hPa Calm     95% 0.00in /  0mm
05:49 56.6 °F /  13.7 °C 55.2 °F /  12.9 °C 29.99in /  1015.5hPa Calm     95% 0.00in /  0mm
05:54 56.4 °F /  13.6 °C 55.0 °F /  12.8 °C 29.99in /  1015.5hPa Calm     95% 0.00in /  0mm
05:59 56.3 °F /  13.5 °C 54.9 °F /  12.7 °C 29.99in /  1015.5hPa Calm     95% 0.00in /  0mm
06:04 56.2 °F /  13.4 °C 54.8 °F /  12.7 °C 30.00in /  1015.8hPa Calm     95% 0.00in /  0mm
06:09 56.0 °F /  13.3 °C 54.6 °F /  12.6 °C 30.00in /  1015.8hPa Calm     95% 0.00in /  0mm
06:14 56.1 °F /  13.4 °C 54.7 °F /  12.6 °C 29.99in /  1015.5hPa Calm     95% 0.00in /  0mm
06:19 56.3 °F /  13.5 °C 54.9 °F /  12.7 °C 30.00in /  1015.8hPa Calm   1.0mph /  1.6km/h 95% 0.00in /  0mm
06:24 56.1 °F /  13.4 °C 54.7 °F /  12.6 °C 30.00in /  1015.8hPa Calm   1.0mph /  1.6km/h 95% 0.00in /  0mm
06:29 55.8 °F /  13.2 °C 54.4 °F /  12.4 °C 30.00in /  1015.8hPa Calm     95% 0.00in /  0mm
06:34 55.7 °F /  13.2 °C 54.3 °F /  12.4 °C 30.00in /  1015.8hPa Calm     95% 0.00in /  0mm
06:39 55.7 °F /  13.2 °C 54.3 °F /  12.4 °C 30.00in /  1015.8hPa Calm     95% 0.00in /  0mm
06:44 55.4 °F /  13 °C 54.0 °F /  12.2 °C 30.01in /  1016.1hPa Calm     95% 0.00in /  0mm
06:49 55.3 °F /  12.9 °C 53.9 °F /  12.2 °C 30.01in /  1016.1hPa Calm     95% 0.00in /  0mm
06:54 55.5 °F /  13.1 °C 54.1 °F /  12.3 °C 30.01in /  1016.1hPa Calm     95% 0.00in /  0mm
06:59 55.7 °F /  13.2 °C 54.3 °F /  12.4 °C 30.01in /  1016.1hPa Calm     95% 0.00in /  0mm
07:04 55.6 °F /  13.1 °C 54.2 °F /  12.3 °C 30.01in /  1016.1hPa Calm     95% 0.00in /  0mm
07:09 55.9 °F /  13.3 °C 54.5 °F /  12.5 °C 30.01in /  1016.1hPa Calm   1.0mph /  1.6km/h 95% 0.00in /  0mm
07:14 55.8 °F /  13.2 °C 54.4 °F /  12.4 °C 30.01in /  1016.1hPa Calm     95% 0.00in /  0mm
07:19 55.6 °F /  13.1 °C 54.2 °F /  12.3 °C 30.01in /  1016.1hPa NNE 1.0mph /  1.6km/h 1.0mph /  1.6km/h 95% 0.00in /  0mm
07:24 55.7 °F /  13.2 °C 54.3 °F /  12.4 °C 30.01in /  1016.1hPa Calm   1.0mph /  1.6km/h 95% 0.00in /  0mm
07:29 55.9 °F /  13.3 °C 54.5 °F /  12.5 °C 30.01in /  1016.1hPa NNE 1.0mph /  1.6km/h 1.0mph /  1.6km/h 95% 0.00in /  0mm
07:34 56.2 °F /  13.4 °C 54.8 °F /  12.7 °C 30.01in /  1016.1hPa Calm     95% 0.00in /  0mm
07:39 56.5 °F /  13.6 °C 55.1 °F /  12.8 °C 30.02in /  1016.5hPa Calm   1.0mph /  1.6km/h 95% 0.00in /  0mm
07:44 56.7 °F /  13.7 °C 55.3 °F /  12.9 °C 30.02in /  1016.5hPa Calm     95% 0.00in /  0mm
07:49 56.9 °F /  13.8 °C 55.5 °F /  13.1 °C 30.02in /  1016.5hPa Calm     95% 0.00in /  0mm
07:54 57.9 °F /  14.4 °C 56.5 °F /  13.6 °C 30.02in /  1016.5hPa Calm     95% 0.00in /  0mm
07:59 58.3 °F /  14.6 °C 56.6 °F /  13.7 °C 30.02in /  1016.5hPa Calm     94% 0.00in /  0mm
08:04 58.1 °F /  14.5 °C 56.4 °F /  13.6 °C 30.02in /  1016.5hPa Calm   1.0mph /  1.6km/h 94% 0.00in /  0mm
08:09 58.5 °F /  14.7 °C 56.8 °F /  13.8 °C 30.01in /  1016.1hPa Calm     94% 0.00in /  0mm
08:14 59.6 °F /  15.3 °C 57.9 °F /  14.4 °C 30.02in /  1016.5hPa Calm     94% 0.00in /  0mm
08:19 60.9 °F /  16.1 °C 59.2 °F /  15.1 °C 30.02in /  1016.5hPa Calm     94% 0.00in /  0mm
08:24 62.5 °F /  16.9 °C 60.5 °F /  15.8 °C 30.02in /  1016.5hPa Calm     93% 0.00in /  0mm
08:30 63.4 °F /  17.4 °C 61.0 °F /  16.1 °C 30.02in /  1016.5hPa Calm     92% 0.00in /  0mm
08:35 63.5 °F /  17.5 °C 60.5 °F /  15.8 °C 30.02in /  1016.5hPa Calm     90% 0.00in /  0mm
08:40 64.7 °F /  18.2 °C 61.7 °F /  16.5 °C 30.02in /  1016.5hPa Calm     90% 0.00in /  0mm
08:45 66.6 °F /  19.2 °C 62.9 °F /  17.2 °C 30.02in /  1016.5hPa Calm     88% 0.00in /  0mm
08:50 67.5 °F /  19.7 °C 63.2 °F /  17.3 °C 30.03in /  1016.8hPa Calm     86% 0.00in /  0mm
08:55 67.8 °F /  19.9 °C 63.5 °F /  17.5 °C 30.03in /  1016.8hPa Calm     86% 0.00in /  0mm
09:00 69.0 °F /  20.6 °C 64.0 °F /  17.8 °C 30.03in /  1016.8hPa Calm     84% 0.00in /  0mm
09:05 69.5 °F /  20.8 °C 64.5 °F /  18.1 °C 30.03in /  1016.8hPa Calm     84% 0.00in /  0mm
09:10 69.7 °F /  20.9 °C 62.5 °F /  16.9 °C 30.03in /  1016.8hPa Calm   1.0mph /  1.6km/h 78% 0.00in /  0mm
09:15 70.6 °F /  21.4 °C 61.9 °F /  16.6 °C 30.03in /  1016.8hPa WSW 1.0mph /  1.6km/h 1.0mph /  1.6km/h 74% 0.00in /  0mm
09:20 70.9 °F /  21.6 °C 61.4 °F /  16.3 °C 30.03in /  1016.8hPa Calm   1.0mph /  1.6km/h 72% 0.00in /  0mm
09:25 71.2 °F /  21.8 °C 61.3 °F /  16.3 °C 30.03in /  1016.8hPa Calm     71% 0.00in /  0mm
09:30 71.4 °F /  21.9 °C 59.9 °F /  15.5 °C 30.03in /  1016.8hPa WSW 1.0mph /  1.6km/h 2.0mph /  3.2km/h 67% 0.00in /  0mm
09:35 71.9 °F /  22.2 °C 61.2 °F /  16.2 °C 30.03in /  1016.8hPa Calm   1.0mph /  1.6km/h 69% 0.00in /  0mm
09:40 72.6 °F /  22.6 °C 60.6 °F /  15.9 °C 30.03in /  1016.8hPa SW 1.0mph /  1.6km/h 1.0mph /  1.6km/h 66% 0.00in /  0mm
09:45 73.1 °F /  22.8 °C 59.8 °F /  15.4 °C 30.03in /  1016.8hPa SSW 1.0mph /  1.6km/h 2.0mph /  3.2km/h 63% 0.00in /  0mm
09:50 73.6 °F /  23.1 °C 60.7 °F /  15.9 °C 30.03in /  1016.8hPa Calm   1.0mph /  1.6km/h 64% 0.00in /  0mm
09:55 74.2 °F /  23.4 °C 61.7 °F /  16.5 °C 30.03in /  1016.8hPa Calm   2.0mph /  3.2km/h 65% 0.00in /  0mm
10:00 74.2 °F /  23.4 °C 59.0 °F /  15 °C 30.03in /  1016.8hPa SSW 2.0mph /  3.2km/h 4.0mph /  6.4km/h 59% 0.00in /  0mm
10:05 74.3 °F /  23.5 °C 59.1 °F /  15.1 °C 30.03in /  1016.8hPa SSW 2.0mph /  3.2km/h 3.0mph /  4.8km/h 59% 0.00in /  0mm
10:10 74.8 °F /  23.8 °C 60.5 °F /  15.8 °C 30.03in /  1016.8hPa SSE 3.0mph /  4.8km/h 3.0mph /  4.8km/h 61% 0.00in /  0mm
10:15 75.0 °F /  23.9 °C 60.2 °F /  15.7 °C 30.03in /  1016.8hPa SSW 2.0mph /  3.2km/h 4.0mph /  6.4km/h 60% 0.00in /  0mm
10:20 75.4 °F /  24.1 °C 60.6 °F /  15.9 °C 30.03in /  1016.8hPa SW 2.0mph /  3.2km/h 4.0mph /  6.4km/h 60% 0.00in /  0mm
10:25 75.4 °F /  24.1 °C 59.1 °F /  15.1 °C 30.03in /  1016.8hPa SSW 3.0mph /  4.8km/h 5.0mph /  8km/h 57% 0.00in /  0mm
10:30 75.3 °F /  24.1 °C 59.0 °F /  15 °C 30.03in /  1016.8hPa SW 5.0mph /  8km/h 5.0mph /  8km/h 57% 0.00in /  0mm
10:35 75.3 °F /  24.1 °C 59.5 °F /  15.3 °C 30.04in /  1017.2hPa SSW 3.0mph /  4.8km/h 5.0mph /  8km/h 58% 0.00in /  0mm
10:40 75.3 °F /  24.1 °C 56.5 °F /  13.6 °C 30.03in /  1016.8hPa WSW 3.0mph /  4.8km/h 5.0mph /  8km/h 52% 0.00in /  0mm
10:45 75.7 °F /  24.3 °C 59.9 °F /  15.5 °C 30.03in /  1016.8hPa SW 3.0mph /  4.8km/h 4.0mph /  6.4km/h 58% 0.00in /  0mm
10:50 75.9 °F /  24.4 °C 57.6 °F /  14.2 °C 30.03in /  1016.8hPa WSW 2.0mph /  3.2km/h 5.0mph /  8km/h 53% 0.00in /  0mm
10:55 76.3 °F /  24.6 °C 57.4 °F /  14.1 °C 30.03in /  1016.8hPa SW 3.0mph /  4.8km/h 4.0mph /  6.4km/h 52% 0.00in /  0mm
11:00 76.6 °F /  24.8 °C 58.7 °F /  14.8 °C 30.03in /  1016.8hPa WNW 2.0mph /  3.2km/h 4.0mph /  6.4km/h 54% 0.00in /  0mm
11:05 76.6 °F /  24.8 °C 59.8 °F /  15.4 °C 30.03in /  1016.8hPa NW 2.0mph /  3.2km/h 2.0mph /  3.2km/h 56% 0.00in /  0mm
11:10 77.2 °F /  25.1 °C 60.8 °F /  16 °C 30.03in /  1016.8hPa West 2.0mph /  3.2km/h 2.0mph /  3.2km/h 57% 0.00in /  0mm
11:15 77.6 °F /  25.3 °C 59.1 °F /  15.1 °C 30.03in /  1016.8hPa Calm   2.0mph /  3.2km/h 53% 0.00in /  0mm
11:20 78.3 °F /  25.7 °C 61.3 °F /  16.3 °C 30.03in /  1016.8hPa WSW 2.0mph /  3.2km/h 3.0mph /  4.8km/h 56% 0.00in /  0mm
11:25 78.3 °F /  25.7 °C 57.0 °F /  13.9 °C 30.03in /  1016.8hPa NW 1.0mph /  1.6km/h 2.0mph /  3.2km/h 48% 0.00in /  0mm
11:30 78.5 °F /  25.8 °C 55.4 °F /  13 °C 30.03in /  1016.8hPa North 2.0mph /  3.2km/h 4.0mph /  6.4km/h 45% 0.00in /  0mm
11:35 78.5 °F /  25.8 °C 55.4 °F /  13 °C 30.03in /  1016.8hPa NNW 1.0mph /  1.6km/h 4.0mph /  6.4km/h 45% 0.00in /  0mm
11:40 78.5 °F /  25.8 °C 56.0 °F /  13.3 °C 30.03in /  1016.8hPa NW 3.0mph /  4.8km/h 4.0mph /  6.4km/h 46% 0.00in /  0mm
11:45 78.4 °F /  25.8 °C 56.5 °F /  13.6 °C 30.02in /  1016.5hPa NW 1.0mph /  1.6km/h 3.0mph /  4.8km/h 47% 0.00in /  0mm
11:50 78.8 °F /  26 °C 59.2 °F /  15.1 °C 30.02in /  1016.5hPa NNW 4.0mph /  6.4km/h 5.0mph /  8km/h 51% 0.00in /  0mm
11:55 78.6 °F /  25.9 °C 57.3 °F /  14.1 °C 30.02in /  1016.5hPa NNW 1.0mph /  1.6km/h 5.0mph /  8km/h 48% 0.00in /  0mm
12:00 78.9 °F /  26.1 °C 58.1 °F /  14.5 °C 30.02in /  1016.5hPa WNW 1.0mph /  1.6km/h 3.0mph /  4.8km/h 49% 0.00in /  0mm
12:05 79.1 °F /  26.2 °C 57.8 °F /  14.3 °C 30.02in /  1016.5hPa NW 2.0mph /  3.2km/h 4.0mph /  6.4km/h 48% 0.00in /  0mm
12:10 79.0 °F /  26.1 °C 55.9 °F /  13.3 °C 30.02in /  1016.5hPa NNE 3.0mph /  4.8km/h 5.0mph /  8km/h 45% 0.00in /  0mm
12:15 79.3 °F /  26.3 °C 56.8 °F /  13.8 °C 30.02in /  1016.5hPa NW 2.0mph /  3.2km/h 4.0mph /  6.4km/h 46% 0.00in /  0mm
12:20 79.1 °F /  26.2 °C 55.3 °F /  12.9 °C 30.02in /  1016.5hPa WNW 5.0mph /  8km/h 8.0mph /  12.9km/h 44% 0.00in /  0mm
12:25 78.8 °F /  26 °C 54.4 °F /  12.4 °C 30.02in /  1016.5hPa WNW 5.0mph /  8km/h 6.0mph /  9.7km/h 43% 0.00in /  0mm
12:30 78.3 °F /  25.7 °C 54.6 °F /  12.6 °C 30.02in /  1016.5hPa WNW 4.0mph /  6.4km/h 6.0mph /  9.7km/h 44% 0.00in /  0mm
12:36 78.2 °F /  25.7 °C 55.1 °F /  12.8 °C 30.02in /  1016.5hPa West 3.0mph /  4.8km/h 5.0mph /  8km/h 45% 0.00in /  0mm
12:41 78.2 °F /  25.7 °C 56.3 °F /  13.5 °C 30.02in /  1016.5hPa NW 1.0mph /  1.6km/h 5.0mph /  8km/h 47% 0.00in /  0mm
12:46 78.1 °F /  25.6 °C 53.8 °F /  12.1 °C 30.02in /  1016.5hPa NNW 3.0mph /  4.8km/h 4.0mph /  6.4km/h 43% 0.00in /  0mm
12:51 77.9 °F /  25.5 °C 54.9 °F /  12.7 °C 30.02in /  1016.5hPa WNW 1.0mph /  1.6km/h 5.0mph /  8km/h 45% 0.00in /  0mm
12:56 78.1 °F /  25.6 °C 56.2 °F /  13.4 °C 30.02in /  1016.5hPa Calm   2.0mph /  3.2km/h 47% 0.00in /  0mm
13:01 78.7 °F /  25.9 °C 58.5 °F /  14.7 °C 30.01in /  1016.1hPa WNW 2.0mph /  3.2km/h 3.0mph /  4.8km/h 50% 0.00in /  0mm
13:06 79.4 °F /  26.3 °C 58.6 °F /  14.8 °C 30.01in /  1016.1hPa NW 2.0mph /  3.2km/h 5.0mph /  8km/h 49% 0.00in /  0mm
13:11 79.6 °F /  26.4 °C 57.6 °F /  14.2 °C 30.02in /  1016.5hPa NW 3.0mph /  4.8km/h 5.0mph /  8km/h 47% 0.00in /  0mm
13:16 79.6 °F /  26.4 °C 57.0 °F /  13.9 °C 30.01in /  1016.1hPa West 5.0mph /  8km/h 5.0mph /  8km/h 46% 0.00in /  0mm
13:22 80.0 °F /  26.7 °C 59.7 °F /  15.4 °C 30.01in /  1016.1hPa WNW 3.0mph /  4.8km/h 5.0mph /  8km/h 50% 0.00in /  0mm
13:27 80.2 °F /  26.8 °C 58.8 °F /  14.9 °C 30.01in /  1016.1hPa NNW 3.0mph /  4.8km/h 6.0mph /  9.7km/h 48% 0.00in /  0mm
13:32 80.0 °F /  26.7 °C 58.0 °F /  14.4 °C 30.01in /  1016.1hPa SW 2.0mph /  3.2km/h 7.0mph /  11.3km/h 47% 0.00in /  0mm
13:37 79.5 °F /  26.4 °C 56.3 °F /  13.5 °C 30.00in /  1015.8hPa Calm   2.0mph /  3.2km/h 45% 0.00in /  0mm
13:42 80.3 °F /  26.8 °C 57.7 °F /  14.3 °C 30.00in /  1015.8hPa Calm   1.0mph /  1.6km/h 46% 0.00in /  0mm
13:47 80.5 °F /  26.9 °C 56.6 °F /  13.7 °C 30.00in /  1015.8hPa ENE 3.0mph /  4.8km/h 6.0mph /  9.7km/h 44% 0.00in /  0mm
13:52 80.5 °F /  26.9 °C 57.2 °F /  14 °C 30.00in /  1015.8hPa NE 4.0mph /  6.4km/h 4.0mph /  6.4km/h 45% 0.00in /  0mm
13:57 80.5 °F /  26.9 °C 57.2 °F /  14 °C 30.00in /  1015.8hPa WNW 3.0mph /  4.8km/h 5.0mph /  8km/h 45% 0.00in /  0mm
14:02 80.4 °F /  26.9 °C 56.5 °F /  13.6 °C 30.00in /  1015.8hPa West 2.0mph /  3.2km/h 5.0mph /  8km/h 44% 0.00in /  0mm
14:07 80.8 °F /  27.1 °C 58.1 °F /  14.5 °C 29.99in /  1015.5hPa East 3.0mph /  4.8km/h 3.0mph /  4.8km/h 46% 0.00in /  0mm
14:12 81.0 °F /  27.2 °C 60.1 °F /  15.6 °C 29.99in /  1015.5hPa North 1.0mph /  1.6km/h 4.0mph /  6.4km/h 49% 0.00in /  0mm
14:17 81.1 °F /  27.3 °C 59.0 °F /  15 °C 29.99in /  1015.5hPa NNW 4.0mph /  6.4km/h 5.0mph /  8km/h 47% 0.00in /  0mm
14:22 81.1 °F /  27.3 °C 55.9 °F /  13.3 °C 29.99in /  1015.5hPa NW 4.0mph /  6.4km/h 5.0mph /  8km/h 42% 0.00in /  0mm
14:27 81.3 °F /  27.4 °C 56.7 °F /  13.7 °C 29.99in /  1015.5hPa NW 5.0mph /  8km/h 5.0mph /  8km/h 43% 0.00in /  0mm
14:32 81.1 °F /  27.3 °C 58.4 °F /  14.7 °C 29.99in /  1015.5hPa NNE 4.0mph /  6.4km/h 8.0mph /  12.9km/h 46% 0.00in /  0mm
14:37 81.2 °F /  27.3 °C 59.1 °F /  15.1 °C 29.99in /  1015.5hPa NW 1.0mph /  1.6km/h 4.0mph /  6.4km/h 47% 0.00in /  0mm
14:42 81.5 °F /  27.5 °C 59.9 °F /  15.5 °C 29.98in /  1015.1hPa WNW 3.0mph /  4.8km/h 5.0mph /  8km/h 48% 0.00in /  0mm
14:47 82.2 °F /  27.9 °C 60.6 °F /  15.9 °C 29.98in /  1015.1hPa Calm   4.0mph /  6.4km/h 48% 0.00in /  0mm
14:53 82.6 °F /  28.1 °C 60.3 °F /  15.7 °C 29.98in /  1015.1hPa NE 1.0mph /  1.6km/h 5.0mph /  8km/h 47% 0.00in /  0mm
14:58 82.3 °F /  27.9 °C 58.9 °F /  14.9 °C 29.98in /  1015.1hPa NE 4.0mph /  6.4km/h 5.0mph /  8km/h 45% 0.00in /  0mm
15:03 81.9 °F /  27.7 °C 55.9 °F /  13.3 °C 29.98in /  1015.1hPa East 3.0mph /  4.8km/h 5.0mph /  8km/h 41% 0.00in /  0mm
15:08 82.2 °F /  27.9 °C 58.8 °F /  14.9 °C 29.98in /  1015.1hPa East 6.0mph /  9.7km/h 6.0mph /  9.7km/h 45% 0.00in /  0mm
15:13 81.6 °F /  27.6 °C 58.2 °F /  14.6 °C 29.98in /  1015.1hPa ENE 5.0mph /  8km/h 6.0mph /  9.7km/h 45% 0.00in /  0mm
15:18 81.3 °F /  27.4 °C 59.2 °F /  15.1 °C 29.97in /  1014.8hPa East 4.0mph /  6.4km/h 5.0mph /  8km/h 47% 0.00in /  0mm
15:23 81.3 °F /  27.4 °C 58.0 °F /  14.4 °C 29.97in /  1014.8hPa SSE 4.0mph /  6.4km/h 6.0mph /  9.7km/h 45% 0.00in /  0mm
15:28 81.0 °F /  27.2 °C 57.7 °F /  14.3 °C 29.97in /  1014.8hPa ESE 4.0mph /  6.4km/h 5.0mph /  8km/h 45% 0.00in /  0mm
15:33 81.0 °F /  27.2 °C 57.1 °F /  13.9 °C 29.97in /  1014.8hPa East 2.0mph /  3.2km/h 6.0mph /  9.7km/h 44% 0.00in /  0mm
15:38 81.3 °F /  27.4 °C 59.8 °F /  15.4 °C 29.97in /  1014.8hPa SE 5.0mph /  8km/h 7.0mph /  11.3km/h 48% 0.00in /  0mm
15:43 81.4 °F /  27.4 °C 58.7 °F /  14.8 °C 29.96in /  1014.4hPa ESE 2.0mph /  3.2km/h 7.0mph /  11.3km/h 46% 0.00in /  0mm
15:48 81.6 °F /  27.6 °C 57.6 °F /  14.2 °C 29.96in /  1014.4hPa NNE 4.0mph /  6.4km/h 5.0mph /  8km/h 44% 0.00in /  0mm
15:53 81.5 °F /  27.5 °C 57.5 °F /  14.2 °C 29.96in /  1014.4hPa East 3.0mph /  4.8km/h 6.0mph /  9.7km/h 44% 0.00in /  0mm
15:58 81.5 °F /  27.5 °C 57.5 °F /  14.2 °C 29.97in /  1014.8hPa North 1.0mph /  1.6km/h 4.0mph /  6.4km/h 44% 0.00in /  0mm
16:03 81.5 °F /  27.5 °C 59.9 °F /  15.5 °C 29.97in /  1014.8hPa ESE 2.0mph /  3.2km/h 6.0mph /  9.7km/h 48% 0.00in /  0mm
16:08 81.9 °F /  27.7 °C 60.9 °F /  16.1 °C 29.97in /  1014.8hPa ENE 2.0mph /  3.2km/h 3.0mph /  4.8km/h 49% 0.00in /  0mm
16:13 82.3 °F /  27.9 °C 58.9 °F /  14.9 °C 29.96in /  1014.4hPa ESE 2.0mph /  3.2km/h 4.0mph /  6.4km/h 45% 0.00in /  0mm
16:18 82.4 °F /  28 °C 58.3 °F /  14.6 °C 29.97in /  1014.8hPa ESE 2.0mph /  3.2km/h 2.0mph /  3.2km/h 44% 0.00in /  0mm
16:23 82.7 °F /  28.2 °C 60.4 °F /  15.8 °C 29.97in /  1014.8hPa East 2.0mph /  3.2km/h 4.0mph /  6.4km/h 47% 0.00in /  0mm
16:28 82.7 °F /  28.2 °C 59.2 °F /  15.1 °C 29.97in /  1014.8hPa ENE 5.0mph /  8km/h 5.0mph /  8km/h 45% 0.00in /  0mm
16:33 82.3 °F /  27.9 °C 58.2 °F /  14.6 °C 29.97in /  1014.8hPa East 3.0mph /  4.8km/h 4.0mph /  6.4km/h 44% 0.00in /  0mm
16:38 82.3 °F /  27.9 °C 58.9 °F /  14.9 °C 29.97in /  1014.8hPa SE 1.0mph /  1.6km/h 3.0mph /  4.8km/h 45% 0.00in /  0mm
16:43 82.3 °F /  27.9 °C 56.9 °F /  13.8 °C 29.96in /  1014.4hPa ESE 1.0mph /  1.6km/h 3.0mph /  4.8km/h 42% 0.00in /  0mm
16:48 82.8 °F /  28.2 °C 59.3 °F /  15.2 °C 29.96in /  1014.4hPa SSE 2.0mph /  3.2km/h 3.0mph /  4.8km/h 45% 0.00in /  0mm
16:53 83.0 °F /  28.3 °C 60.7 °F /  15.9 °C 29.96in /  1014.4hPa SE 1.0mph /  1.6km/h 2.0mph /  3.2km/h 47% 0.00in /  0mm
16:58 82.8 °F /  28.2 °C 59.9 °F /  15.5 °C 29.96in /  1014.4hPa ESE 2.0mph /  3.2km/h 3.0mph /  4.8km/h 46% 0.00in /  0mm
17:03 82.5 °F /  28.1 °C 58.4 °F /  14.7 °C 29.96in /  1014.4hPa Calm   3.0mph /  4.8km/h 44% 0.00in /  0mm
17:08 82.8 °F /  28.2 °C 58.7 °F /  14.8 °C 29.96in /  1014.4hPa NNE 1.0mph /  1.6km/h 3.0mph /  4.8km/h 44% 0.00in /  0mm
17:14 82.7 °F /  28.2 °C 58.0 °F /  14.4 °C 29.96in /  1014.4hPa East 1.0mph /  1.6km/h 5.0mph /  8km/h 43% 0.00in /  0mm
17:19 82.8 °F /  28.2 °C 61.1 °F /  16.2 °C 29.96in /  1014.4hPa East 2.0mph /  3.2km/h 4.0mph /  6.4km/h 48% 0.00in /  0mm
17:24 82.5 °F /  28.1 °C 57.8 °F /  14.3 °C 29.95in /  1014.1hPa NE 2.0mph /  3.2km/h 4.0mph /  6.4km/h 43% 0.00in /  0mm
17:29 82.5 °F /  28.1 °C 59.0 °F /  15 °C 29.95in /  1014.1hPa SE 3.0mph /  4.8km/h 4.0mph /  6.4km/h 45% 0.00in /  0mm
17:33 82.6 °F /  28.1 °C 59.8 °F /  15.4 °C 29.95in /  1014.1hPa SE 3.0mph /  4.8km/h 4.0mph /  6.4km/h 46% 0.00in /  0mm
17:39 82.5 °F /  28.1 °C 60.3 °F /  15.7 °C 29.95in /  1014.1hPa SSE 4.0mph /  6.4km/h 6.0mph /  9.7km/h 47% 0.00in /  0mm
17:44 82.4 °F /  28 °C 60.2 °F /  15.7 °C 29.95in /  1014.1hPa ESE 2.0mph /  3.2km/h 4.0mph /  6.4km/h 47% 0.00in /  0mm
17:49 82.4 °F /  28 °C 59.6 °F /  15.3 °C 29.95in /  1014.1hPa SE 2.0mph /  3.2km/h 4.0mph /  6.4km/h 46% 0.00in /  0mm
17:54 82.2 °F /  27.9 °C 61.7 °F /  16.5 °C 29.95in /  1014.1hPa ESE 2.0mph /  3.2km/h 4.0mph /  6.4km/h 50% 0.00in /  0mm
17:59 82.2 °F /  27.9 °C 58.8 °F /  14.9 °C 29.95in /  1014.1hPa Calm   3.0mph /  4.8km/h 45% 0.00in /  0mm
18:04 82.3 °F /  27.9 °C 61.2 °F /  16.2 °C 29.95in /  1014.1hPa ESE 3.0mph /  4.8km/h 6.0mph /  9.7km/h 49% 0.00in /  0mm
18:09 82.1 °F /  27.8 °C 61.1 °F /  16.2 °C 29.95in /  1014.1hPa ESE 2.0mph /  3.2km/h 5.0mph /  8km/h 49% 0.00in /  0mm
18:14 82.0 °F /  27.8 °C 59.8 °F /  15.4 °C 29.95in /  1014.1hPa East 4.0mph /  6.4km/h 5.0mph /  8km/h 47% 0.00in /  0mm
18:19 82.1 °F /  27.8 °C 61.6 °F /  16.4 °C 29.95in /  1014.1hPa ESE 3.0mph /  4.8km/h 3.0mph /  4.8km/h 50% 0.00in /  0mm
18:24 82.3 °F /  27.9 °C 59.5 °F /  15.3 °C 29.95in /  1014.1hPa ESE 2.0mph /  3.2km/h 3.0mph /  4.8km/h 46% 0.00in /  0mm
18:29 82.1 °F /  27.8 °C 60.5 °F /  15.8 °C 29.95in /  1014.1hPa East 2.0mph /  3.2km/h 5.0mph /  8km/h 48% 0.00in /  0mm
18:34 81.8 °F /  27.7 °C 60.2 °F /  15.7 °C 29.95in /  1014.1hPa East 2.0mph /  3.2km/h 4.0mph /  6.4km/h 48% 0.00in /  0mm
18:39 81.8 °F /  27.7 °C 60.2 °F /  15.7 °C 29.95in /  1014.1hPa East 1.0mph /  1.6km/h 4.0mph /  6.4km/h 48% 0.00in /  0mm
18:44 81.9 °F /  27.7 °C 60.9 °F /  16.1 °C 29.95in /  1014.1hPa ENE 3.0mph /  4.8km/h 4.0mph /  6.4km/h 49% 0.00in /  0mm
18:49 81.8 °F /  27.7 °C 61.9 °F /  16.6 °C 29.95in /  1014.1hPa East 2.0mph /  3.2km/h 4.0mph /  6.4km/h 51% 0.00in /  0mm
18:54 81.7 °F /  27.6 °C 61.3 °F /  16.3 °C 29.94in /  1013.8hPa East 3.0mph /  4.8km/h 3.0mph /  4.8km/h 50% 0.00in /  0mm
18:59 81.7 °F /  27.6 °C 62.4 °F /  16.9 °C 29.95in /  1014.1hPa ENE 3.0mph /  4.8km/h 3.0mph /  4.8km/h 52% 0.00in /  0mm
19:04 81.6 °F /  27.6 °C 62.8 °F /  17.1 °C 29.94in /  1013.8hPa East 3.0mph /  4.8km/h 3.0mph /  4.8km/h 53% 0.00in /  0mm
19:09 81.4 °F /  27.4 °C 62.6 °F /  17 °C 29.94in /  1013.8hPa ESE 2.0mph /  3.2km/h 2.0mph /  3.2km/h 53% 0.00in /  0mm
19:14 81.2 °F /  27.3 °C 62.5 °F /  16.9 °C 29.95in /  1014.1hPa East 2.0mph /  3.2km/h 5.0mph /  8km/h 53% 0.00in /  0mm
19:19 80.8 °F /  27.1 °C 61.5 °F /  16.4 °C 29.95in /  1014.1hPa ESE 2.0mph /  3.2km/h 5.0mph /  8km/h 52% 0.00in /  0mm
19:24 80.6 °F /  27 °C 63.0 °F /  17.2 °C 29.95in /  1014.1hPa East 2.0mph /  3.2km/h 3.0mph /  4.8km/h 55% 0.00in /  0mm
19:29 80.3 °F /  26.8 °C 61.6 °F /  16.4 °C 29.95in /  1014.1hPa East 1.0mph /  1.6km/h 4.0mph /  6.4km/h 53% 0.00in /  0mm
19:34 80.1 °F /  26.7 °C 61.4 °F /  16.3 °C 29.95in /  1014.1hPa ENE 3.0mph /  4.8km/h 4.0mph /  6.4km/h 53% 0.00in /  0mm
19:39 80.0 °F /  26.7 °C 62.4 °F /  16.9 °C 29.95in /  1014.1hPa East 2.0mph /  3.2km/h 3.0mph /  4.8km/h 55% 0.00in /  0mm
19:44 79.8 °F /  26.6 °C 62.2 °F /  16.8 °C 29.95in /  1014.1hPa East 2.0mph /  3.2km/h 2.0mph /  3.2km/h 55% 0.00in /  0mm
19:49 79.7 °F /  26.5 °C 62.1 °F /  16.7 °C 29.95in /  1014.1hPa East 2.0mph /  3.2km/h 2.0mph /  3.2km/h 55% 0.00in /  0mm
19:54 79.6 °F /  26.4 °C 63.0 °F /  17.2 °C 29.95in /  1014.1hPa East 1.0mph /  1.6km/h 2.0mph /  3.2km/h 57% 0.00in /  0mm
19:59 79.4 °F /  26.3 °C 62.9 °F /  17.2 °C 29.95in /  1014.1hPa East 2.0mph /  3.2km/h 2.0mph /  3.2km/h 57% 0.00in /  0mm
20:04 79.2 °F /  26.2 °C 62.7 °F /  17.1 °C 29.95in /  1014.1hPa East 1.0mph /  1.6km/h 2.0mph /  3.2km/h 57% 0.00in /  0mm
20:09 79.0 °F /  26.1 °C 63.0 °F /  17.2 °C 29.95in /  1014.1hPa East 2.0mph /  3.2km/h 2.0mph /  3.2km/h 58% 0.00in /  0mm
20:14 78.6 °F /  25.9 °C 63.1 °F /  17.3 °C 29.95in /  1014.1hPa Calm   3.0mph /  4.8km/h 59% 0.00in /  0mm
20:19 78.0 °F /  25.6 °C 63.0 °F /  17.2 °C 29.95in /  1014.1hPa Calm   1.0mph /  1.6km/h 60% 0.00in /  0mm
20:24 77.2 °F /  25.1 °C 63.2 °F /  17.3 °C 29.95in /  1014.1hPa Calm   1.0mph /  1.6km/h 62% 0.00in /  0mm
20:29 76.4 °F /  24.7 °C 63.3 °F /  17.4 °C 29.95in /  1014.1hPa East 1.0mph /  1.6km/h 1.0mph /  1.6km/h 64% 0.00in /  0mm
20:34 75.6 °F /  24.2 °C 63.5 °F /  17.5 °C 29.95in /  1014.1hPa SE 1.0mph /  1.6km/h 2.0mph /  3.2km/h 66% 0.00in /  0mm
20:39 74.9 °F /  23.8 °C 63.6 °F /  17.6 °C 29.95in /  1014.1hPa SE 1.0mph /  1.6km/h 1.0mph /  1.6km/h 68% 0.00in /  0mm
20:44 74.4 °F /  23.6 °C 62.7 °F /  17.1 °C 29.95in /  1014.1hPa ESE 1.0mph /  1.6km/h 2.0mph /  3.2km/h 67% 0.00in /  0mm
20:49 74.3 °F /  23.5 °C 62.6 °F /  17 °C 29.96in /  1014.4hPa ESE 1.0mph /  1.6km/h 1.0mph /  1.6km/h 67% 0.00in /  0mm
20:54 74.1 °F /  23.4 °C 62.5 °F /  16.9 °C 29.96in /  1014.4hPa ESE 1.0mph /  1.6km/h 1.0mph /  1.6km/h 67% 0.00in /  0mm
20:59 73.9 °F /  23.3 °C 62.7 °F /  17.1 °C 29.97in /  1014.8hPa ESE 1.0mph /  1.6km/h 1.0mph /  1.6km/h 68% 0.00in /  0mm
21:04 73.6 °F /  23.1 °C 62.4 °F /  16.9 °C 29.96in /  1014.4hPa Calm   1.0mph /  1.6km/h 68% 0.00in /  0mm
21:10 73.4 °F /  23 °C 63.0 °F /  17.2 °C 29.97in /  1014.8hPa SE 1.0mph /  1.6km/h 1.0mph /  1.6km/h 70% 0.00in /  0mm
21:15 73.1 °F /  22.8 °C 63.2 °F /  17.3 °C 29.97in /  1014.8hPa Calm   2.0mph /  3.2km/h 71% 0.00in /  0mm
21:20 72.9 °F /  22.7 °C 63.0 °F /  17.2 °C 29.97in /  1014.8hPa Calm   1.0mph /  1.6km/h 71% 0.00in /  0mm
21:25 72.7 °F /  22.6 °C 63.2 °F /  17.3 °C 29.97in /  1014.8hPa ESE 1.0mph /  1.6km/h 1.0mph /  1.6km/h 72% 0.00in /  0mm
21:30 72.5 °F /  22.5 °C 63.0 °F /  17.2 °C 29.97in /  1014.8hPa ESE 1.0mph /  1.6km/h 2.0mph /  3.2km/h 72% 0.00in /  0mm
21:35 72.3 °F /  22.4 °C 63.2 °F /  17.3 °C 29.97in /  1014.8hPa Calm   1.0mph /  1.6km/h 73% 0.00in /  0mm
21:40 72.1 °F /  22.3 °C 63.0 °F /  17.2 °C 29.97in /  1014.8hPa Calm   1.0mph /  1.6km/h 73% 0.00in /  0mm
21:45 72.2 °F /  22.3 °C 63.1 °F /  17.3 °C 29.97in /  1014.8hPa Calm   1.0mph /  1.6km/h 73% 0.00in /  0mm
21:50 72.2 °F /  22.3 °C 62.7 °F /  17.1 °C 29.98in /  1015.1hPa ESE 1.0mph /  1.6km/h 2.0mph /  3.2km/h 72% 0.00in /  0mm
21:55 72.2 °F /  22.3 °C 62.3 °F /  16.8 °C 29.98in /  1015.1hPa ESE 2.0mph /  3.2km/h 2.0mph /  3.2km/h 71% 0.00in /  0mm
22:00 72.2 °F /  22.3 °C 61.9 °F /  16.6 °C 29.98in /  1015.1hPa ESE 2.0mph /  3.2km/h 3.0mph /  4.8km/h 70% 0.00in /  0mm
22:05 72.3 °F /  22.4 °C 61.6 °F /  16.4 °C 29.98in /  1015.1hPa SE 1.0mph /  1.6km/h 2.0mph /  3.2km/h 69% 0.00in /  0mm
22:10 72.4 °F /  22.4 °C 60.8 °F /  16 °C 29.98in /  1015.1hPa SE 2.0mph /  3.2km/h 3.0mph /  4.8km/h 67% 0.00in /  0mm
22:15 72.4 °F /  22.4 °C 60.4 °F /  15.8 °C 29.98in /  1015.1hPa SE 2.0mph /  3.2km/h 3.0mph /  4.8km/h 66% 0.00in /  0mm
22:20 72.4 °F /  22.4 °C 60.8 °F /  16 °C 29.98in /  1015.1hPa East 2.0mph /  3.2km/h 2.0mph /  3.2km/h 67% 0.00in /  0mm
22:25 72.2 °F /  22.3 °C 61.1 °F /  16.2 °C 29.98in /  1015.1hPa ESE 2.0mph /  3.2km/h 2.0mph /  3.2km/h 68% 0.00in /  0mm
22:30 72.0 °F /  22.2 °C 60.5 °F /  15.8 °C 29.98in /  1015.1hPa ESE 2.0mph /  3.2km/h 2.0mph /  3.2km/h 67% 0.00in /  0mm
22:35 72.0 °F /  22.2 °C 60.0 °F /  15.6 °C 29.98in /  1015.1hPa ESE 2.0mph /  3.2km/h 2.0mph /  3.2km/h 66% 0.00in /  0mm
22:40 72.2 °F /  22.3 °C 59.4 °F /  15.2 °C 29.98in /  1015.1hPa SE 3.0mph /  4.8km/h 3.0mph /  4.8km/h 64% 0.00in /  0mm
22:45 72.5 °F /  22.5 °C 58.8 °F /  14.9 °C 29.97in /  1014.8hPa ESE 2.0mph /  3.2km/h 3.0mph /  4.8km/h 62% 0.00in /  0mm
22:50 72.2 °F /  22.3 °C 59.4 °F /  15.2 °C 29.97in /  1014.8hPa East 2.0mph /  3.2km/h 2.0mph /  3.2km/h 64% 0.00in /  0mm
22:55 71.8 °F /  22.1 °C 59.4 °F /  15.2 °C 29.97in /  1014.8hPa East 2.0mph /  3.2km/h 3.0mph /  4.8km/h 65% 0.00in /  0mm
23:00 71.4 °F /  21.9 °C 59.0 °F /  15 °C 29.97in /  1014.8hPa ESE 3.0mph /  4.8km/h 3.0mph /  4.8km/h 65% 0.00in /  0mm
23:05 71.4 °F /  21.9 °C 59.0 °F /  15 °C 29.97in /  1014.8hPa ESE 2.0mph /  3.2km/h 3.0mph /  4.8km/h 65% 0.00in /  0mm
23:10 71.4 °F /  21.9 °C 58.6 °F /  14.8 °C 29.97in /  1014.8hPa ESE 4.0mph /  6.4km/h 4.0mph /  6.4km/h 64% 0.00in /  0mm
23:15 71.4 °F /  21.9 °C 58.6 °F /  14.8 °C 29.97in /  1014.8hPa ESE 4.0mph /  6.4km/h 4.0mph /  6.4km/h 64% 0.00in /  0mm
23:20 71.0 °F /  21.7 °C 59.1 °F /  15.1 °C 29.97in /  1014.8hPa SE 3.0mph /  4.8km/h 5.0mph /  8km/h 66% 0.00in /  0mm
23:25 70.6 °F /  21.4 °C 59.1 °F /  15.1 °C 29.97in /  1014.8hPa SE 3.0mph /  4.8km/h 3.0mph /  4.8km/h 67% 0.00in /  0mm
23:30 70.5 °F /  21.4 °C 58.6 °F /  14.8 °C 29.97in /  1014.8hPa SE 4.0mph /  6.4km/h 4.0mph /  6.4km/h 66% 0.00in /  0mm
23:35 70.4 °F /  21.3 °C 58.9 °F /  14.9 °C 29.97in /  1014.8hPa ESE 3.0mph /  4.8km/h 4.0mph /  6.4km/h 67% 0.00in /  0mm
23:41 70.1 °F /  21.2 °C 59.1 °F /  15.1 °C 29.97in /  1014.8hPa ESE 3.0mph /  4.8km/h 3.0mph /  4.8km/h 68% 0.00in /  0mm
23:46 70.0 °F /  21.1 °C 59.0 °F /  15 °C 29.97in /  1014.8hPa SE 3.0mph /  4.8km/h 4.0mph /  6.4km/h 68% 0.00in /  0mm
23:52 69.8 °F /  21 °C 59.2 °F /  15.1 °C 29.97in /  1014.8hPa ESE 3.0mph /  4.8km/h 4.0mph /  6.4km/h 69% 0.00in /  0mm
23:57 69.6 °F /  20.9 °C 59.4 °F /  15.2 °C 29.97in /  1014.8hPa East 1.0mph /  1.6km/h 3.0mph /  4.8km/h 70% 0.00in /  0mm
Compliments of Weather Underground